createdAt,value
2023-11-30T00:00:08.292Z,10
2023-11-30T00:01:16.825Z,9.4
2023-11-30T00:02:25.174Z,9.4
2023-11-30T00:03:33.573Z,9.4
2023-11-30T00:04:42.073Z,8.3
2023-11-30T00:05:50.437Z,8.3
2023-11-30T00:06:58.766Z,8.3
2023-11-30T00:08:07.319Z,8.2
2023-11-30T00:09:15.676Z,8.2
2023-11-30T00:10:24.002Z,8.2
2023-11-30T00:11:32.524Z,8.9
2023-11-30T00:12:40.858Z,8.9
2023-11-30T00:13:49.191Z,8.9
2023-11-30T00:14:57.811Z,9.6
2023-11-30T00:16:06.091Z,9.6
2023-11-30T00:17:14.426Z,9.6
2023-11-30T00:18:23.006Z,9.2
2023-11-30T00:19:31.300Z,9.2
2023-11-30T00:20:39.659Z,9.2
2023-11-30T00:21:48.196Z,8.9
2023-11-30T00:22:56.537Z,8.9
2023-11-30T00:24:04.870Z,8.9
2023-11-30T00:25:13.396Z,9.2
2023-11-30T00:26:21.732Z,9.2
2023-11-30T00:27:30.074Z,9.2
2023-11-30T00:28:38.606Z,8.7
2023-11-30T00:29:46.969Z,8.7
2023-11-30T00:30:55.386Z,8.7
2023-11-30T00:32:03.866Z,8.8
2023-11-30T00:33:12.259Z,8.8
2023-11-30T00:34:20.539Z,8.8
2023-11-30T00:35:29.094Z,10
2023-11-30T00:36:37.432Z,10
2023-11-30T00:37:45.783Z,10
2023-11-30T00:38:54.316Z,9.5
2023-11-30T00:40:02.658Z,9.5
2023-11-30T00:41:10.995Z,9.5
2023-11-30T00:42:19.608Z,9.8
2023-11-30T00:43:27.884Z,9.8
2023-11-30T00:44:36.209Z,9.8
2023-11-30T00:45:45.478Z,9.7
2023-11-30T00:46:53.136Z,9.7
2023-11-30T00:48:01.500Z,9.7
2023-11-30T00:49:10.027Z,8.4
2023-11-30T00:50:18.367Z,8.4
2023-11-30T00:51:26.746Z,8.4
2023-11-30T00:52:35.245Z,10.4
2023-11-30T00:53:43.586Z,10.4
2023-11-30T00:54:51.924Z,10.4
2023-11-30T00:56:00.493Z,10.1
2023-11-30T00:57:08.891Z,10.1
2023-11-30T00:58:17.218Z,10.1
2023-11-30T00:59:25.788Z,9.3
2023-11-30T01:00:34.141Z,9.3
2023-11-30T01:01:42.517Z,9.3
2023-11-30T01:02:51.034Z,9.4
2023-11-30T01:03:59.344Z,9.4
2023-11-30T01:05:07.684Z,9.4
2023-11-30T01:06:16.221Z,9
2023-11-30T01:07:24.540Z,9
2023-11-30T01:08:32.879Z,9
2023-11-30T01:09:41.423Z,8.6
2023-11-30T01:10:49.762Z,8.6
2023-11-30T01:11:58.130Z,8.6
2023-11-30T01:13:06.693Z,8.4
2023-11-30T01:14:15.048Z,8.4
2023-11-30T01:15:23.441Z,8.4
2023-11-30T01:16:31.985Z,7.2
2023-11-30T01:17:40.389Z,7.2
2023-11-30T01:18:48.741Z,7.2
2023-11-30T01:19:57.185Z,7.8
2023-11-30T01:21:05.537Z,7.8
2023-11-30T01:22:13.861Z,7.8
2023-11-30T01:23:22.411Z,8.1
2023-11-30T01:24:30.754Z,8.1
2023-11-30T01:25:39.079Z,8.1
2023-11-30T01:26:47.645Z,8.3
2023-11-30T01:27:55.965Z,8.3
2023-11-30T01:29:04.312Z,8.3
2023-11-30T01:30:12.895Z,8
2023-11-30T01:31:21.260Z,8
2023-11-30T01:32:29.579Z,8
2023-11-30T01:33:38.166Z,7.5
2023-11-30T01:34:46.492Z,7.5
2023-11-30T01:35:54.812Z,7.5
2023-11-30T01:37:03.376Z,7.2
2023-11-30T01:38:11.714Z,7.2
2023-11-30T01:39:20.138Z,7.2
2023-11-30T01:40:28.597Z,7.6
2023-11-30T01:41:36.933Z,7.6
2023-11-30T01:42:45.271Z,7.6
2023-11-30T01:43:53.925Z,7.9
2023-11-30T01:45:02.143Z,7.9
2023-11-30T01:46:10.541Z,7.9
2023-11-30T01:47:19.055Z,8.2
2023-11-30T01:48:27.408Z,8.2
2023-11-30T01:49:35.745Z,8.2
2023-11-30T01:50:44.275Z,7.2
2023-11-30T01:51:52.608Z,7.2
2023-11-30T01:53:00.943Z,7.2
2023-11-30T01:54:09.532Z,7.8
2023-11-30T01:55:17.830Z,7.8
2023-11-30T01:56:26.165Z,7.8
2023-11-30T01:57:34.737Z,6.8
2023-11-30T01:58:43.050Z,6.8
2023-11-30T01:59:51.428Z,6.8
2023-11-30T02:01:00.032Z,7.3
2023-11-30T02:02:08.361Z,7.3
2023-11-30T02:03:16.668Z,7.3
2023-11-30T02:04:25.210Z,7.4
2023-11-30T02:05:33.497Z,7.4
2023-11-30T02:06:41.855Z,7.4
2023-11-30T02:07:50.364Z,7
2023-11-30T02:08:58.708Z,7
2023-11-30T02:10:07.043Z,7
2023-11-30T02:11:15.607Z,8.1
2023-11-30T02:12:23.984Z,8.1
2023-11-30T02:13:32.279Z,8.1
2023-11-30T02:14:40.826Z,7
2023-11-30T02:15:49.193Z,7
2023-11-30T02:16:57.531Z,7
2023-11-30T02:18:06.121Z,7.4
2023-11-30T02:19:14.419Z,7.4
2023-11-30T02:20:22.758Z,7.4
2023-11-30T02:21:31.335Z,7.9
2023-11-30T02:22:39.663Z,7.9
2023-11-30T02:23:47.985Z,7.9
2023-11-30T02:24:56.520Z,7.2
2023-11-30T02:26:04.867Z,7.2
2023-11-30T02:27:13.244Z,7.2
2023-11-30T02:28:21.749Z,6.4
2023-11-30T02:29:30.087Z,6.4
2023-11-30T02:30:38.439Z,6.4
2023-11-30T02:31:47.002Z,8.4
2023-11-30T02:32:55.424Z,8.4
2023-11-30T02:34:03.639Z,8.4
2023-11-30T02:35:12.218Z,8.2
2023-11-30T02:36:20.557Z,8.2
2023-11-30T02:37:28.859Z,8.2
2023-11-30T02:38:37.436Z,6.7
2023-11-30T02:39:45.759Z,6.7
2023-11-30T02:40:54.092Z,6.7
2023-11-30T02:42:02.689Z,7.4
2023-11-30T02:43:11.005Z,7.4
2023-11-30T02:44:19.330Z,7.4
2023-11-30T02:45:27.909Z,8.1
2023-11-30T02:46:36.272Z,8.1
2023-11-30T02:47:44.574Z,8.1
2023-11-30T02:48:53.149Z,6.6
2023-11-30T02:50:01.448Z,6.6
2023-11-30T02:51:09.829Z,6.6
2023-11-30T02:52:18.348Z,7.2
2023-11-30T02:53:26.687Z,7.2
2023-11-30T02:54:35.118Z,7.2
2023-11-30T02:55:43.587Z,7.4
2023-11-30T02:56:51.940Z,7.4
2023-11-30T02:58:00.284Z,7.4
2023-11-30T02:59:08.860Z,7.3
2023-11-30T03:00:17.223Z,7.3
2023-11-30T03:01:25.559Z,7.3
2023-11-30T03:02:34.165Z,7
2023-11-30T03:03:42.518Z,7
2023-11-30T03:04:50.753Z,7
2023-11-30T03:05:59.325Z,8.4
2023-11-30T03:07:07.649Z,8.4
2023-11-30T03:08:15.974Z,8.4
2023-11-30T03:09:24.557Z,7.1
2023-11-30T03:10:32.887Z,7.1
2023-11-30T03:11:41.208Z,7.1
2023-11-30T03:12:49.738Z,7.8
2023-11-30T03:13:58.069Z,7.8
2023-11-30T03:15:06.443Z,7.8
2023-11-30T03:16:14.995Z,7
2023-11-30T03:17:23.321Z,7
2023-11-30T03:18:31.704Z,7
2023-11-30T03:19:40.174Z,7.2
2023-11-30T03:20:48.503Z,7.2
2023-11-30T03:21:56.897Z,7.2
2023-11-30T03:23:05.455Z,6.7
2023-11-30T03:24:13.788Z,6.7
2023-11-30T03:25:22.098Z,6.7
2023-11-30T03:26:30.691Z,6.7
2023-11-30T03:27:38.987Z,6.7
2023-11-30T03:28:47.333Z,6.7
2023-11-30T03:29:55.894Z,6.8
2023-11-30T03:31:04.228Z,6.8
2023-11-30T03:32:12.609Z,6.8
2023-11-30T03:33:21.158Z,6.8
2023-11-30T03:34:29.457Z,6.8
2023-11-30T03:35:37.787Z,6.8
2023-11-30T03:36:46.395Z,8.5
2023-11-30T03:37:54.693Z,8.5
2023-11-30T03:39:03.060Z,8.5
2023-11-30T03:40:11.597Z,7.3
2023-11-30T03:41:19.944Z,7.3
2023-11-30T03:42:28.367Z,7.3
2023-11-30T03:43:36.863Z,7.5
2023-11-30T03:44:45.179Z,7.5
2023-11-30T03:45:53.542Z,7.5
2023-11-30T03:47:02.079Z,7.4
2023-11-30T03:48:10.430Z,7.4
2023-11-30T03:49:18.745Z,7.4
2023-11-30T03:50:27.326Z,7.7
2023-11-30T03:51:35.725Z,7.7
2023-11-30T03:52:44.008Z,7.7
2023-11-30T03:53:52.738Z,9.1
2023-11-30T03:55:00.879Z,9.1
2023-11-30T03:56:09.222Z,9.1
2023-11-30T03:57:17.774Z,7.1
2023-11-30T03:58:26.118Z,7.1
2023-11-30T03:59:34.436Z,7.1
2023-11-30T04:00:43.028Z,7.4
2023-11-30T04:01:51.363Z,7.4
2023-11-30T04:02:59.792Z,7.4
2023-11-30T04:04:08.242Z,9.2
2023-11-30T04:05:16.591Z,9.2
2023-11-30T04:06:24.931Z,9.2
2023-11-30T04:07:33.415Z,9.5
2023-11-30T04:08:41.774Z,9.5
2023-11-30T04:09:50.133Z,9.5
2023-11-30T04:10:58.720Z,9.4
2023-11-30T04:12:07.029Z,9.4
2023-11-30T04:13:15.363Z,9.4
2023-11-30T04:14:23.946Z,8.9
2023-11-30T04:15:32.352Z,8.9
2023-11-30T04:16:40.595Z,8.9
2023-11-30T04:17:49.147Z,9.1
2023-11-30T04:18:57.486Z,9.1
2023-11-30T04:20:05.803Z,9.1
2023-11-30T04:21:14.357Z,9.1
2023-11-30T04:22:22.669Z,9.1
2023-11-30T04:23:30.996Z,9.1
2023-11-30T04:24:39.540Z,10
2023-11-30T04:25:47.873Z,10
2023-11-30T04:26:56.239Z,10
2023-11-30T04:28:04.759Z,11.6
2023-11-30T04:29:13.120Z,11.6
2023-11-30T04:30:21.605Z,11.6
2023-11-30T04:31:30.101Z,10.5
2023-11-30T04:32:38.453Z,10.5
2023-11-30T04:33:46.808Z,10.5
2023-11-30T04:34:55.332Z,9.2
2023-11-30T04:36:03.711Z,9.2
2023-11-30T04:37:12.025Z,9.2
2023-11-30T04:38:20.571Z,10.3
2023-11-30T04:39:28.944Z,10.3
2023-11-30T04:40:37.265Z,10.3
2023-11-30T04:41:45.840Z,12
2023-11-30T04:42:54.184Z,12
2023-11-30T04:44:02.522Z,12
2023-11-30T04:45:11.087Z,11.1
2023-11-30T04:46:19.446Z,11.1
2023-11-30T04:47:27.794Z,11.1
2023-11-30T04:48:36.850Z,11.3
2023-11-30T04:49:44.685Z,11.3
2023-11-30T04:50:53.032Z,11.3
2023-11-30T04:52:01.603Z,10.9
2023-11-30T04:53:09.947Z,10.9
2023-11-30T04:54:18.311Z,10.9
2023-11-30T04:55:26.885Z,10.8
2023-11-30T04:56:35.229Z,10.8
2023-11-30T04:57:43.559Z,10.8
2023-11-30T04:58:52.086Z,12.8
2023-11-30T05:00:00.499Z,12.8
2023-11-30T05:01:08.795Z,12.8
2023-11-30T05:02:17.429Z,11.5
2023-11-30T05:03:25.840Z,11.5
2023-11-30T05:04:34.089Z,11.5
2023-11-30T05:05:42.610Z,12.3
2023-11-30T05:06:50.951Z,12.3
2023-11-30T05:07:59.291Z,12.3
2023-11-30T05:09:07.830Z,14.3
2023-11-30T05:10:16.161Z,14.3
2023-11-30T05:11:24.488Z,14.3
2023-11-30T05:12:33.055Z,13
2023-11-30T05:13:41.382Z,13
2023-11-30T05:14:49.750Z,13
2023-11-30T05:15:58.289Z,14.5
2023-11-30T05:17:06.653Z,14.5
2023-11-30T05:18:15.096Z,14.5
2023-11-30T05:19:23.552Z,15
2023-11-30T05:20:31.892Z,15
2023-11-30T05:21:40.225Z,15
2023-11-30T05:22:48.781Z,15.8
2023-11-30T05:23:57.180Z,15.8
2023-11-30T05:25:05.479Z,15.8
2023-11-30T05:26:14.023Z,15.3
2023-11-30T05:27:22.380Z,15.3
2023-11-30T05:28:32.215Z,15.3
2023-11-30T05:29:39.264Z,12.2
2023-11-30T05:30:47.709Z,12.2
2023-11-30T05:31:55.971Z,12.2
2023-11-30T05:33:04.655Z,21.5
2023-11-30T05:34:12.934Z,21.5
2023-11-30T05:35:21.241Z,21.5
2023-11-30T05:36:29.860Z,14.1
2023-11-30T05:37:38.131Z,14.1
2023-11-30T05:38:46.459Z,14.1
2023-11-30T05:39:55.023Z,15.8
2023-11-30T05:41:03.336Z,15.8
2023-11-30T05:42:11.703Z,15.8
2023-11-30T05:43:20.237Z,17.700001
2023-11-30T05:44:28.575Z,17.700001
2023-11-30T05:45:36.937Z,17.700001
2023-11-30T05:46:45.459Z,19.299999
2023-11-30T05:47:53.805Z,19.299999
2023-11-30T05:49:02.232Z,19.299999
2023-11-30T05:50:10.702Z,17.4
2023-11-30T05:51:19.093Z,17.4
2023-11-30T05:52:27.332Z,17.4
2023-11-30T05:53:35.886Z,16.5
2023-11-30T05:54:44.241Z,16.5
2023-11-30T05:55:52.546Z,16.5
2023-11-30T05:57:01.511Z,18.299999
2023-11-30T05:58:09.423Z,18.299999
2023-11-30T05:59:17.755Z,18.299999
2023-11-30T06:00:26.332Z,20
2023-11-30T06:01:34.670Z,20
2023-11-30T06:02:42.994Z,20
2023-11-30T06:03:51.695Z,17.6
2023-11-30T06:04:59.973Z,17.6
2023-11-30T06:06:08.243Z,17.6
2023-11-30T06:07:16.741Z,16.6
2023-11-30T06:08:25.079Z,16.6
2023-11-30T06:09:33.420Z,16.6
2023-11-30T06:10:41.953Z,15.5
2023-11-30T06:11:50.306Z,15.5
2023-11-30T06:12:58.688Z,15.5
2023-11-30T06:14:07.200Z,15
2023-11-30T06:15:15.556Z,15
2023-11-30T06:16:23.892Z,15
2023-11-30T06:17:32.434Z,15.1
2023-11-30T06:18:40.823Z,15.1
2023-11-30T06:19:49.171Z,15.1
2023-11-30T06:20:57.753Z,19.5
2023-11-30T06:22:06.106Z,19.5
2023-11-30T06:23:14.425Z,19.5
2023-11-30T06:24:22.988Z,18.1
2023-11-30T06:25:31.313Z,18.1
2023-11-30T06:26:39.652Z,18.1
2023-11-30T06:27:48.191Z,20.4
2023-11-30T06:28:56.544Z,20.4
2023-11-30T06:30:04.900Z,20.4
2023-11-30T06:31:13.448Z,21.1
2023-11-30T06:32:21.770Z,21.1
2023-11-30T06:33:30.097Z,21.1
2023-11-30T06:34:39.668Z,23
2023-11-30T06:35:46.990Z,23
2023-11-30T06:36:55.315Z,23
2023-11-30T06:38:03.920Z,17.5
2023-11-30T06:39:12.202Z,17.5
2023-11-30T06:40:20.546Z,17.5
2023-11-30T06:41:29.084Z,18.4
2023-11-30T06:42:37.451Z,18.4
2023-11-30T06:43:45.767Z,18.4
2023-11-30T06:44:54.317Z,17.6
2023-11-30T06:46:02.688Z,17.6
2023-11-30T06:47:11.033Z,17.6
2023-11-30T06:48:19.614Z,17.1
2023-11-30T06:49:27.898Z,17.1
2023-11-30T06:50:36.271Z,17.1
2023-11-30T06:51:44.835Z,15.3
2023-11-30T06:52:53.167Z,15.3
2023-11-30T06:54:01.563Z,15.3
2023-11-30T06:55:10.049Z,14.9
2023-11-30T06:56:18.407Z,14.9
2023-11-30T06:57:26.768Z,14.9
2023-11-30T06:58:35.279Z,13.9
2023-11-30T06:59:43.616Z,13.9
2023-11-30T07:00:51.989Z,13.9
2023-11-30T07:02:00.547Z,16.4
2023-11-30T07:03:08.910Z,16.4
2023-11-30T07:04:17.239Z,16.4
2023-11-30T07:05:25.726Z,14.9
2023-11-30T07:06:34.105Z,14.9
2023-11-30T07:07:42.411Z,14.9
2023-11-30T07:08:50.960Z,15.7
2023-11-30T07:09:59.300Z,15.7
2023-11-30T07:11:07.638Z,15.7
2023-11-30T07:12:16.475Z,16.1
2023-11-30T07:13:24.532Z,16.1
2023-11-30T07:14:48.795Z,16.1
2023-11-30T07:15:41.490Z,29.5
2023-11-30T07:16:49.784Z,29.5
2023-11-30T07:17:58.149Z,29.5
2023-11-30T07:19:06.687Z,20.9
2023-11-30T07:20:15.001Z,20.9
2023-11-30T07:21:23.385Z,20.9
2023-11-30T07:22:31.910Z,26.9
2023-11-30T07:23:40.240Z,26.9
2023-11-30T07:24:48.627Z,26.9
2023-11-30T07:25:57.169Z,24
2023-11-30T07:27:05.463Z,24
2023-11-30T07:28:13.796Z,24
2023-11-30T07:29:24.803Z,21.799999
2023-11-30T07:30:30.737Z,21.799999
2023-11-30T07:31:39.098Z,21.799999
2023-11-30T07:32:47.648Z,22.5
2023-11-30T07:33:55.957Z,22.5
2023-11-30T07:35:04.305Z,22.5
2023-11-30T07:36:14.147Z,21.5
2023-11-30T07:37:21.214Z,21.5
2023-11-30T07:38:29.550Z,21.5
2023-11-30T07:39:38.096Z,21.1
2023-11-30T07:40:46.424Z,21.1
2023-11-30T07:41:54.788Z,21.1
2023-11-30T07:43:03.333Z,20.799999
2023-11-30T07:44:11.732Z,20.799999
2023-11-30T07:45:19.997Z,20.799999
2023-11-30T07:46:28.590Z,17.299999
2023-11-30T07:47:36.875Z,17.299999
2023-11-30T07:48:45.292Z,17.299999
2023-11-30T07:49:53.774Z,18.799999
2023-11-30T07:51:02.121Z,18.799999
2023-11-30T07:52:10.458Z,18.799999
2023-11-30T07:53:19.017Z,16.5
2023-11-30T07:54:27.391Z,16.5
2023-11-30T07:55:35.706Z,16.5
2023-11-30T07:56:44.248Z,17.799999
2023-11-30T07:57:52.620Z,17.799999
2023-11-30T07:59:00.951Z,17.799999
2023-11-30T08:00:09.546Z,16.4
2023-11-30T08:01:17.813Z,16.4
2023-11-30T08:02:26.144Z,16.4
2023-11-30T08:03:34.847Z,16.799999
2023-11-30T08:04:43.104Z,16.799999
2023-11-30T08:05:51.448Z,16.799999
2023-11-30T08:06:59.963Z,19.9
2023-11-30T08:08:08.314Z,19.9
2023-11-30T08:09:16.641Z,19.9
2023-11-30T08:10:25.214Z,18.200001
2023-11-30T08:11:33.573Z,18.200001
2023-11-30T08:12:41.906Z,18.200001
2023-11-30T08:13:50.454Z,19.299999
2023-11-30T08:14:58.747Z,19.299999
2023-11-30T08:16:07.111Z,19.299999
2023-11-30T08:17:15.641Z,17.700001
2023-11-30T08:18:23.993Z,17.700001
2023-11-30T08:19:32.293Z,17.700001
2023-11-30T08:20:40.821Z,16.5
2023-11-30T08:21:49.127Z,16.5
2023-11-30T08:22:57.599Z,16.5
2023-11-30T08:24:06.019Z,18
2023-11-30T08:25:14.323Z,18
2023-11-30T08:26:22.673Z,18
2023-11-30T08:27:31.275Z,17
2023-11-30T08:28:39.565Z,17
2023-11-30T08:29:47.909Z,17
2023-11-30T08:30:56.492Z,17.700001
2023-11-30T08:32:04.858Z,17.700001
2023-11-30T08:33:13.235Z,17.700001
2023-11-30T08:34:21.676Z,16.1
2023-11-30T08:35:30.082Z,16.1
2023-11-30T08:36:38.338Z,16.1
2023-11-30T08:37:46.880Z,22.799999
2023-11-30T08:38:55.206Z,22.799999
2023-11-30T08:40:03.543Z,22.799999
2023-11-30T08:41:12.071Z,31.9
2023-11-30T08:42:20.406Z,31.9
2023-11-30T08:43:28.729Z,31.9
2023-11-30T08:44:37.254Z,17.9
2023-11-30T08:45:45.612Z,17.9
2023-11-30T08:46:53.973Z,17.9
2023-11-30T08:48:02.558Z,17.200001
2023-11-30T08:49:10.751Z,17.200001
2023-11-30T08:50:19.078Z,17.200001
2023-11-30T08:51:27.697Z,18
2023-11-30T08:52:35.961Z,18
2023-11-30T08:53:44.295Z,18
2023-11-30T08:54:52.840Z,18.799999
2023-11-30T08:56:01.164Z,18.799999
2023-11-30T08:57:09.515Z,18.799999
2023-11-30T08:58:18.023Z,18.200001
2023-11-30T08:59:26.380Z,18.200001
2023-11-30T09:00:34.753Z,18.200001
2023-11-30T09:01:43.327Z,17.6
2023-11-30T09:02:51.604Z,17.6
2023-11-30T09:04:00.029Z,17.6
2023-11-30T09:05:08.554Z,20.200001
2023-11-30T09:06:16.868Z,20.200001
2023-11-30T09:07:25.174Z,20.200001
2023-11-30T09:08:33.715Z,21.299999
2023-11-30T09:09:44.707Z,21.299999
2023-11-30T09:10:50.412Z,21.299999
2023-11-30T09:11:58.943Z,22.4
2023-11-30T09:13:07.287Z,22.4
2023-11-30T09:14:15.621Z,22.4
2023-11-30T09:15:24.172Z,20.5
2023-11-30T09:16:32.511Z,20.5
2023-11-30T09:17:40.877Z,20.5
2023-11-30T09:18:49.404Z,23.9
2023-11-30T09:19:57.732Z,23.9
2023-11-30T09:21:06.065Z,23.9
2023-11-30T09:22:14.592Z,21.299999
2023-11-30T09:23:22.920Z,21.299999
2023-11-30T09:24:31.286Z,21.299999
2023-11-30T09:25:39.813Z,22.5
2023-11-30T09:26:49.249Z,22.5
2023-11-30T09:27:56.482Z,22.5
2023-11-30T09:29:05.081Z,20
2023-11-30T09:30:13.465Z,20
2023-11-30T09:31:21.819Z,20
2023-11-30T09:32:30.398Z,20.299999
2023-11-30T09:33:38.742Z,20.299999
2023-11-30T09:34:47.026Z,20.299999
2023-11-30T09:35:55.560Z,18.9
2023-11-30T09:37:03.910Z,18.9
2023-11-30T09:38:12.249Z,18.9
2023-11-30T09:39:20.900Z,20.200001
2023-11-30T09:40:29.152Z,20.200001
2023-11-30T09:41:37.506Z,20.200001
2023-11-30T09:42:46.051Z,17.799999
2023-11-30T09:43:55.410Z,17.799999
2023-11-30T09:45:02.850Z,17.799999
2023-11-30T09:46:11.340Z,18
2023-11-30T09:47:19.653Z,18
2023-11-30T09:48:28.010Z,18
2023-11-30T09:49:36.580Z,19.1
2023-11-30T09:50:44.896Z,19.1
2023-11-30T09:51:53.296Z,19.1
2023-11-30T09:53:01.772Z,18.5
2023-11-30T09:54:10.132Z,18.5
2023-11-30T09:55:18.461Z,18.5
2023-11-30T09:56:27.025Z,18.700001
2023-11-30T09:57:35.414Z,18.700001
2023-11-30T09:58:43.702Z,18.700001
2023-11-30T09:59:52.266Z,19
2023-11-30T10:01:00.638Z,19
2023-11-30T10:02:09.184Z,19
2023-11-30T10:03:17.545Z,18.700001
2023-11-30T10:04:25.909Z,18.700001
2023-11-30T10:05:34.227Z,18.700001
2023-11-30T10:06:42.877Z,21.700001
2023-11-30T10:07:51.090Z,21.700001
2023-11-30T10:08:59.420Z,21.700001
2023-11-30T10:10:07.975Z,20.4
2023-11-30T10:11:16.334Z,20.4
2023-11-30T10:12:24.669Z,20.4
2023-11-30T10:13:33.220Z,21.9
2023-11-30T10:14:41.563Z,21.9
2023-11-30T10:15:50.033Z,21.9
2023-11-30T10:16:58.478Z,18.700001
2023-11-30T10:18:06.903Z,18.700001
2023-11-30T10:19:15.221Z,18.700001
2023-11-30T10:20:23.736Z,21.5
2023-11-30T10:21:32.137Z,21.5
2023-11-30T10:22:40.453Z,21.5
2023-11-30T10:23:48.985Z,20.299999
2023-11-30T10:24:57.310Z,20.299999
2023-11-30T10:26:05.669Z,20.299999
2023-11-30T10:27:14.240Z,20.1
2023-11-30T10:28:22.580Z,20.1
2023-11-30T10:29:30.928Z,20.1
2023-11-30T10:30:39.482Z,22.4
2023-11-30T10:31:47.806Z,22.4
2023-11-30T10:32:56.166Z,22.4
2023-11-30T10:34:04.822Z,21.5
2023-11-30T10:35:13.082Z,21.5
2023-11-30T10:36:21.414Z,21.5
2023-11-30T10:37:29.974Z,21.9
2023-11-30T10:38:38.294Z,21.9
2023-11-30T10:39:46.668Z,21.9
2023-11-30T10:40:55.205Z,23
2023-11-30T10:42:03.560Z,23
2023-11-30T10:43:11.891Z,23
2023-11-30T10:44:20.458Z,22.799999
2023-11-30T10:45:28.854Z,22.799999
2023-11-30T10:46:37.176Z,22.799999
2023-11-30T10:47:45.725Z,22.200001
2023-11-30T10:48:54.066Z,22.200001
2023-11-30T10:50:02.426Z,22.200001
2023-11-30T10:51:10.956Z,24.4
2023-11-30T10:52:19.304Z,24.4
2023-11-30T10:53:27.686Z,24.4
2023-11-30T10:54:36.217Z,23.299999
2023-11-30T10:55:44.542Z,23.299999
2023-11-30T10:56:52.904Z,23.299999
2023-11-30T10:58:01.481Z,24.200001
2023-11-30T10:59:09.799Z,24.200001
2023-11-30T11:00:18.217Z,24.200001
2023-11-30T11:01:26.861Z,24.9
2023-11-30T11:02:35.105Z,24.9
2023-11-30T11:03:43.508Z,24.9
2023-11-30T11:04:52.008Z,24.5
2023-11-30T11:06:00.349Z,24.5
2023-11-30T11:07:08.695Z,24.5
2023-11-30T11:08:17.277Z,24.6
2023-11-30T11:09:25.679Z,24.6
2023-11-30T11:10:33.957Z,24.6
2023-11-30T11:11:42.515Z,23.6
2023-11-30T11:12:50.924Z,23.6
2023-11-30T11:13:59.237Z,23.6
2023-11-30T11:15:07.845Z,24.299999
2023-11-30T11:16:16.289Z,24.299999
2023-11-30T11:17:24.498Z,24.299999
2023-11-30T11:18:33.086Z,24.200001
2023-11-30T11:19:41.381Z,24.200001
2023-11-30T11:20:49.701Z,24.200001
2023-11-30T11:21:58.306Z,24.4
2023-11-30T11:23:06.685Z,24.4
2023-11-30T11:24:15.041Z,24.4
2023-11-30T11:25:23.603Z,25.700001
2023-11-30T11:26:31.921Z,25.700001
2023-11-30T11:27:40.344Z,25.700001
2023-11-30T11:28:48.835Z,26.200001
2023-11-30T11:29:57.198Z,26.200001
2023-11-30T11:31:05.563Z,26.200001
2023-11-30T11:32:14.084Z,23.9
2023-11-30T11:33:22.890Z,23.9
2023-11-30T11:34:30.752Z,23.9
2023-11-30T11:35:39.322Z,25.700001
2023-11-30T11:36:47.762Z,25.700001
2023-11-30T11:37:57.323Z,25.700001
2023-11-30T11:39:04.593Z,25.799999
2023-11-30T11:40:12.931Z,25.799999
2023-11-30T11:41:21.300Z,25.799999
2023-11-30T11:42:29.848Z,26.700001
2023-11-30T11:43:38.148Z,26.700001
2023-11-30T11:44:46.511Z,26.700001
2023-11-30T11:45:55.127Z,29.299999
2023-11-30T11:47:03.379Z,29.299999
2023-11-30T11:48:11.909Z,29.299999
2023-11-30T11:49:20.283Z,26.700001
2023-11-30T11:50:28.630Z,26.700001
2023-11-30T11:51:37.020Z,26.700001
2023-11-30T11:52:45.550Z,23.5
2023-11-30T11:53:53.885Z,23.5
2023-11-30T11:55:02.223Z,23.5
2023-11-30T11:56:10.775Z,26.799999
2023-11-30T11:57:19.186Z,26.799999
2023-11-30T11:58:27.457Z,26.799999
2023-11-30T11:59:36.013Z,24.299999
2023-11-30T12:00:44.383Z,24.299999
2023-11-30T12:01:52.764Z,24.299999
2023-11-30T12:03:01.226Z,26.9
2023-11-30T12:04:09.708Z,26.9
2023-11-30T12:05:17.989Z,26.9
2023-11-30T12:06:26.518Z,28
2023-11-30T12:07:34.805Z,28
2023-11-30T12:08:43.162Z,28
2023-11-30T12:09:51.742Z,25.5
2023-11-30T12:11:00.055Z,25.5
2023-11-30T12:12:08.410Z,25.5
2023-11-30T12:13:16.994Z,28.4
2023-11-30T12:14:25.312Z,28.4
2023-11-30T12:15:33.761Z,28.4
2023-11-30T12:16:42.248Z,28
2023-11-30T12:17:50.652Z,28
2023-11-30T12:18:58.943Z,28
2023-11-30T12:20:07.507Z,30
2023-11-30T12:21:15.873Z,30
2023-11-30T12:22:24.199Z,30
2023-11-30T12:23:32.746Z,29.700001
2023-11-30T12:24:41.124Z,29.700001
2023-11-30T12:25:49.418Z,29.700001
2023-11-30T12:26:57.982Z,28
2023-11-30T12:28:06.335Z,28
2023-11-30T12:29:14.729Z,28
2023-11-30T12:30:23.263Z,31.4
2023-11-30T12:31:31.623Z,31.4
2023-11-30T12:32:39.945Z,31.4
2023-11-30T12:33:50.168Z,26.799999
2023-11-30T12:34:56.849Z,26.799999
2023-11-30T12:36:05.194Z,26.799999
2023-11-30T12:37:13.752Z,27.4
2023-11-30T12:38:22.120Z,27.4
2023-11-30T12:39:30.465Z,27.4
2023-11-30T12:40:39.007Z,25.700001
2023-11-30T12:41:47.358Z,25.700001
2023-11-30T12:42:55.733Z,25.700001
2023-11-30T12:44:04.978Z,24.700001
2023-11-30T12:45:12.699Z,24.700001
2023-11-30T12:46:20.956Z,24.700001
2023-11-30T12:47:29.523Z,29.4
2023-11-30T12:48:37.878Z,29.4
2023-11-30T12:49:46.236Z,29.4
2023-11-30T12:50:54.753Z,26.4
2023-11-30T12:52:03.139Z,26.4
2023-11-30T12:53:11.493Z,26.4
2023-11-30T12:54:20.118Z,22.299999
2023-11-30T12:55:28.558Z,22.299999
2023-11-30T12:56:36.800Z,22.299999
2023-11-30T12:57:45.425Z,22.299999
2023-11-30T12:58:53.746Z,22.299999
2023-11-30T13:00:02.127Z,22.299999
2023-11-30T13:01:10.709Z,20.1
2023-11-30T13:02:19.150Z,20.1
2023-11-30T13:03:27.566Z,20.1
2023-11-30T13:04:36.094Z,18.5
2023-11-30T13:05:44.411Z,18.5
2023-11-30T13:06:52.787Z,18.5
2023-11-30T13:08:01.359Z,19.5
2023-11-30T13:09:09.689Z,19.5
2023-11-30T13:10:18.017Z,19.5
2023-11-30T13:11:26.572Z,20.200001
2023-11-30T13:12:34.935Z,20.200001
2023-11-30T13:13:45.240Z,20.200001
2023-11-30T13:14:51.838Z,18.799999
2023-11-30T13:16:00.210Z,18.799999
2023-11-30T13:17:08.556Z,18.799999
2023-11-30T13:18:17.122Z,18.700001
2023-11-30T13:19:25.759Z,18.700001
2023-11-30T13:20:33.796Z,18.700001
2023-11-30T13:21:42.378Z,17.6
2023-11-30T13:22:50.732Z,17.6
2023-11-30T13:23:59.128Z,17.6
2023-11-30T13:25:07.701Z,15.8
2023-11-30T13:26:16.041Z,15.8
2023-11-30T13:27:24.423Z,15.8
2023-11-30T13:28:37.635Z,18.700001
2023-11-30T13:29:41.354Z,18.700001
2023-11-30T13:30:49.725Z,18.700001
2023-11-30T13:31:58.263Z,20.700001
2023-11-30T13:33:06.785Z,20.700001
2023-11-30T13:34:14.973Z,20.700001
2023-11-30T13:35:23.510Z,106.69999
2023-11-30T13:36:31.857Z,106.69999
2023-11-30T13:37:40.213Z,106.69999
2023-11-30T13:38:48.777Z,18.5
2023-11-30T13:39:57.164Z,18.5
2023-11-30T13:41:05.863Z,18.5
2023-11-30T13:42:14.407Z,27.700001
2023-11-30T13:43:22.753Z,27.700001
2023-11-30T13:44:31.600Z,27.700001
2023-11-30T13:45:39.680Z,14.4
2023-11-30T13:46:48.097Z,14.4
2023-11-30T13:47:56.396Z,14.4
2023-11-30T13:49:04.984Z,10.8
2023-11-30T13:50:20.244Z,10.8
2023-11-30T13:51:21.636Z,10.8
2023-11-30T13:52:30.196Z,11.4
2023-11-30T13:53:38.523Z,11.4
2023-11-30T13:54:47.600Z,11.4
2023-11-30T13:55:56.146Z,11.9
2023-11-30T13:57:04.569Z,11.9
2023-11-30T13:58:12.836Z,11.9
2023-11-30T13:59:21.369Z,12.5
2023-11-30T14:00:29.796Z,12.5
2023-11-30T14:01:38.140Z,12.5
2023-11-30T14:02:46.697Z,10.4
2023-11-30T14:03:55.056Z,10.4
2023-11-30T14:05:03.440Z,10.4
2023-11-30T14:06:12.014Z,12.7
2023-11-30T14:07:20.303Z,12.7
2023-11-30T14:08:28.663Z,12.7
2023-11-30T14:09:37.267Z,14.6
2023-11-30T14:10:45.575Z,14.6
2023-11-30T14:11:53.978Z,14.6
2023-11-30T14:13:02.529Z,14.8
2023-11-30T14:14:10.872Z,14.8
2023-11-30T14:15:19.228Z,14.8
2023-11-30T14:16:27.798Z,16.4
2023-11-30T14:17:36.167Z,16.4
2023-11-30T14:18:44.535Z,16.4
2023-11-30T14:19:53.062Z,18
2023-11-30T14:21:01.446Z,18
2023-11-30T14:22:09.753Z,18
2023-11-30T14:23:18.312Z,19.700001
2023-11-30T14:24:26.677Z,19.700001
2023-11-30T14:25:35.002Z,19.700001
2023-11-30T14:26:43.589Z,17
2023-11-30T14:27:51.947Z,17
2023-11-30T14:29:00.269Z,17
2023-11-30T14:30:08.840Z,18.299999
2023-11-30T14:31:17.236Z,18.299999
2023-11-30T14:32:25.545Z,18.299999
2023-11-30T14:33:34.114Z,17.6
2023-11-30T14:34:42.441Z,17.6
2023-11-30T14:35:50.780Z,17.6
2023-11-30T14:36:59.391Z,19.1
2023-11-30T14:38:07.705Z,19.1
2023-11-30T14:39:16.071Z,19.1
2023-11-30T14:40:24.649Z,14.6
2023-11-30T14:41:32.956Z,14.6
2023-11-30T14:42:41.338Z,14.6
2023-11-30T14:43:49.863Z,16.700001
2023-11-30T14:44:58.231Z,16.700001
2023-11-30T14:46:06.558Z,16.700001
2023-11-30T14:47:15.090Z,18.200001
2023-11-30T14:48:23.470Z,18.200001
2023-11-30T14:49:31.803Z,18.200001
2023-11-30T14:50:40.421Z,17.799999